sensor_id;sensor_type;location;lat;lon;timestamp;P1;durP1;ratioP1;P2;durP2;ratioP2
8104;SDS011;4095;48.942;9.104;2023-02-08T00:01:52;21.67;;;14.43;;
8104;SDS011;4095;48.942;9.104;2023-02-08T00:04:18;19.07;;;13.40;;
8104;SDS011;4095;48.942;9.104;2023-02-08T00:06:43;19.53;;;13.20;;
8104;SDS011;4095;48.942;9.104;2023-02-08T00:09:09;20.63;;;14.23;;
8104;SDS011;4095;48.942;9.104;2023-02-08T00:11:35;19.77;;;14.47;;
8104;SDS011;4095;48.942;9.104;2023-02-08T00:14:00;21.20;;;14.60;;
8104;SDS011;4095;48.942;9.104;2023-02-08T00:16:26;21.80;;;14.30;;
8104;SDS011;4095;48.942;9.104;2023-02-08T00:18:52;18.30;;;13.37;;
8104;SDS011;4095;48.942;9.104;2023-02-08T00:21:18;20.73;;;13.70;;
8104;SDS011;4095;48.942;9.104;2023-02-08T00:23:44;19.33;;;13.87;;
8104;SDS011;4095;48.942;9.104;2023-02-08T00:26:10;21.73;;;14.40;;
8104;SDS011;4095;48.942;9.104;2023-02-08T00:28:35;20.00;;;13.13;;
8104;SDS011;4095;48.942;9.104;2023-02-08T00:31:01;20.13;;;14.23;;
8104;SDS011;4095;48.942;9.104;2023-02-08T00:33:27;18.40;;;13.80;;
8104;SDS011;4095;48.942;9.104;2023-02-08T00:35:59;20.67;;;14.20;;
8104;SDS011;4095;48.942;9.104;2023-02-08T00:38:26;21.97;;;14.13;;
8104;SDS011;4095;48.942;9.104;2023-02-08T00:40:51;19.93;;;13.93;;
8104;SDS011;4095;48.942;9.104;2023-02-08T00:43:17;20.53;;;14.10;;
8104;SDS011;4095;48.942;9.104;2023-02-08T00:45:43;34.60;;;19.07;;
8104;SDS011;4095;48.942;9.104;2023-02-08T00:48:08;24.70;;;15.63;;
8104;SDS011;4095;48.942;9.104;2023-02-08T00:50:34;18.87;;;13.50;;
8104;SDS011;4095;48.942;9.104;2023-02-08T00:52:59;21.03;;;13.33;;
8104;SDS011;4095;48.942;9.104;2023-02-08T00:55:25;19.43;;;13.07;;
8104;SDS011;4095;48.942;9.104;2023-02-08T00:57:51;19.50;;;14.17;;
8104;SDS011;4095;48.942;9.104;2023-02-08T01:00:16;16.50;;;13.00;;
8104;SDS011;4095;48.942;9.104;2023-02-08T01:02:42;19.50;;;13.23;;
8104;SDS011;4095;48.942;9.104;2023-02-08T01:05:08;17.47;;;12.77;;
8104;SDS011;4095;48.942;9.104;2023-02-08T01:07:37;18.73;;;13.47;;
8104;SDS011;4095;48.942;9.104;2023-02-08T01:10:03;17.80;;;12.13;;
8104;SDS011;4095;48.942;9.104;2023-02-08T01:12:30;23.33;;;14.90;;
8104;SDS011;4095;48.942;9.104;2023-02-08T01:14:56;19.30;;;12.67;;
8104;SDS011;4095;48.942;9.104;2023-02-08T01:17:21;20.20;;;13.80;;
8104;SDS011;4095;48.942;9.104;2023-02-08T01:19:47;18.97;;;12.43;;
8104;SDS011;4095;48.942;9.104;2023-02-08T01:22:12;17.43;;;11.97;;
8104;SDS011;4095;48.942;9.104;2023-02-08T01:24:38;18.77;;;12.97;;
8104;SDS011;4095;48.942;9.104;2023-02-08T01:27:04;19.10;;;13.27;;
8104;SDS011;4095;48.942;9.104;2023-02-08T01:29:29;23.83;;;13.63;;
8104;SDS011;4095;48.942;9.104;2023-02-08T01:31:55;19.23;;;13.00;;
8104;SDS011;4095;48.942;9.104;2023-02-08T01:34:20;16.90;;;11.97;;
8104;SDS011;4095;48.942;9.104;2023-02-08T01:36:46;18.77;;;12.37;;
8104;SDS011;4095;48.942;9.104;2023-02-08T01:39:12;16.53;;;12.17;;
8104;SDS011;4095;48.942;9.104;2023-02-08T01:41:39;16.47;;;11.73;;
8104;SDS011;4095;48.942;9.104;2023-02-08T01:46:41;16.30;;;11.87;;
8104;SDS011;4095;48.942;9.104;2023-02-08T01:49:20;16.33;;;11.93;;
8104;SDS011;4095;48.942;9.104;2023-02-08T01:54:22;18.27;;;12.13;;
8104;SDS011;4095;48.942;9.104;2023-02-08T01:56:51;16.90;;;12.47;;
8104;SDS011;4095;48.942;9.104;2023-02-08T01:59:21;14.67;;;11.53;;
8104;SDS011;4095;48.942;9.104;2023-02-08T02:01:51;19.50;;;12.10;;
8104;SDS011;4095;48.942;9.104;2023-02-08T02:04:19;17.53;;;12.43;;
8104;SDS011;4095;48.942;9.104;2023-02-08T02:06:46;15.37;;;11.20;;
8104;SDS011;4095;48.942;9.104;2023-02-08T02:09:35;17.83;;;12.00;;
8104;SDS011;4095;48.942;9.104;2023-02-08T02:12:08;17.03;;;12.00;;
8104;SDS011;4095;48.942;9.104;2023-02-08T02:14:34;17.80;;;12.43;;
8104;SDS011;4095;48.942;9.104;2023-02-08T02:17:01;16.97;;;11.40;;
8104;SDS011;4095;48.942;9.104;2023-02-08T02:33:39;17.67;;;12.30;;
8104;SDS011;4095;48.942;9.104;2023-02-08T02:36:20;17.37;;;12.20;;
8104;SDS011;4095;48.942;9.104;2023-02-08T02:39:04;17.30;;;11.13;;
8104;SDS011;4095;48.942;9.104;2023-02-08T02:50:23;18.20;;;11.67;;
8104;SDS011;4095;48.942;9.104;2023-02-08T02:55:22;16.67;;;12.27;;
8104;SDS011;4095;48.942;9.104;2023-02-08T02:57:50;15.97;;;12.27;;
8104;SDS011;4095;48.942;9.104;2023-02-08T03:00:23;18.80;;;12.17;;
8104;SDS011;4095;48.942;9.104;2023-02-08T03:02:50;16.67;;;11.87;;
8104;SDS011;4095;48.942;9.104;2023-02-08T03:05:17;18.33;;;12.33;;
8104;SDS011;4095;48.942;9.104;2023-02-08T03:07:59;17.53;;;12.33;;
8104;SDS011;4095;48.942;9.104;2023-02-08T03:11:15;18.07;;;12.37;;
8104;SDS011;4095;48.942;9.104;2023-02-08T03:19:48;19.00;;;11.47;;
8104;SDS011;4095;48.942;9.104;2023-02-08T03:22:13;15.53;;;11.43;;
8104;SDS011;4095;48.942;9.104;2023-02-08T03:25:00;19.63;;;12.80;;
8104;SDS011;4095;48.942;9.104;2023-02-08T03:33:18;19.20;;;13.07;;
8104;SDS011;4095;48.942;9.104;2023-02-08T03:35:54;18.13;;;12.80;;
8104;SDS011;4095;48.942;9.104;2023-02-08T03:38:42;21.93;;;13.47;;
8104;SDS011;4095;48.942;9.104;2023-02-08T03:41:13;18.33;;;12.63;;
8104;SDS011;4095;48.942;9.104;2023-02-08T03:43:43;18.23;;;13.17;;
8104;SDS011;4095;48.942;9.104;2023-02-08T03:48:48;20.97;;;13.63;;
8104;SDS011;4095;48.942;9.104;2023-02-08T03:51:18;17.97;;;12.73;;
8104;SDS011;4095;48.942;9.104;2023-02-08T03:53:47;21.63;;;13.63;;
8104;SDS011;4095;48.942;9.104;2023-02-08T03:56:21;24.57;;;14.90;;
8104;SDS011;4095;48.942;9.104;2023-02-08T03:58:59;28.93;;;15.53;;
8104;SDS011;4095;48.942;9.104;2023-02-08T04:01:36;32.47;;;16.93;;
8104;SDS011;4095;48.942;9.104;2023-02-08T04:04:12;29.27;;;16.57;;
8104;SDS011;4095;48.942;9.104;2023-02-08T04:06:40;25.07;;;15.80;;
8104;SDS011;4095;48.942;9.104;2023-02-08T04:09:06;21.93;;;13.83;;
8104;SDS011;4095;48.942;9.104;2023-02-08T04:11:31;26.00;;;14.97;;
8104;SDS011;4095;48.942;9.104;2023-02-08T04:13:57;23.47;;;14.17;;
8104;SDS011;4095;48.942;9.104;2023-02-08T04:16:22;23.23;;;14.00;;
8104;SDS011;4095;48.942;9.104;2023-02-08T04:18:48;19.50;;;13.57;;
8104;SDS011;4095;48.942;9.104;2023-02-08T04:21:13;22.70;;;13.60;;
8104;SDS011;4095;48.942;9.104;2023-02-08T04:23:39;18.17;;;12.63;;
8104;SDS011;4095;48.942;9.104;2023-02-08T04:26:05;19.43;;;12.97;;
8104;SDS011;4095;48.942;9.104;2023-02-08T04:28:32;19.37;;;13.73;;
8104;SDS011;4095;48.942;9.104;2023-02-08T04:30:58;20.47;;;13.03;;
8104;SDS011;4095;48.942;9.104;2023-02-08T04:33:24;22.00;;;13.33;;
8104;SDS011;4095;48.942;9.104;2023-02-08T04:35:49;21.43;;;13.37;;
8104;SDS011;4095;48.942;9.104;2023-02-08T04:38:15;21.00;;;13.10;;
8104;SDS011;4095;48.942;9.104;2023-02-08T04:40:41;20.67;;;13.63;;
8104;SDS011;4095;48.942;9.104;2023-02-08T04:43:06;20.53;;;13.40;;
8104;SDS011;4095;48.942;9.104;2023-02-08T04:45:32;19.93;;;12.93;;
8104;SDS011;4095;48.942;9.104;2023-02-08T04:47:59;21.93;;;14.43;;
8104;SDS011;4095;48.942;9.104;2023-02-08T04:50:25;20.63;;;13.83;;
8104;SDS011;4095;48.942;9.104;2023-02-08T04:52:51;21.43;;;13.63;;
8104;SDS011;4095;48.942;9.104;2023-02-08T04:55:17;18.93;;;13.10;;
8104;SDS011;4095;48.942;9.104;2023-02-08T04:57:42;19.70;;;13.13;;
8104;SDS011;4095;48.942;9.104;2023-02-08T05:00:08;30.70;;;16.63;;
8104;SDS011;4095;48.942;9.104;2023-02-08T05:02:34;27.00;;;15.47;;
8104;SDS011;4095;48.942;9.104;2023-02-08T05:05:00;24.43;;;13.87;;
8104;SDS011;4095;48.942;9.104;2023-02-08T05:07:25;24.83;;;14.43;;
8104;SDS011;4095;48.942;9.104;2023-02-08T05:09:51;20.73;;;13.40;;
8104;SDS011;4095;48.942;9.104;2023-02-08T05:12:16;20.43;;;13.20;;
8104;SDS011;4095;48.942;9.104;2023-02-08T05:14:42;21.83;;;13.40;;
8104;SDS011;4095;48.942;9.104;2023-02-08T05:17:08;18.43;;;13.13;;
8104;SDS011;4095;48.942;9.104;2023-02-08T05:19:33;16.90;;;12.10;;
8104;SDS011;4095;48.942;9.104;2023-02-08T05:21:59;22.07;;;12.63;;
8104;SDS011;4095;48.942;9.104;2023-02-08T05:24:24;19.93;;;12.93;;
8104;SDS011;4095;48.942;9.104;2023-02-08T05:26:50;16.90;;;11.73;;
8104;SDS011;4095;48.942;9.104;2023-02-08T05:29:16;19.30;;;12.47;;
8104;SDS011;4095;48.942;9.104;2023-02-08T05:31:41;17.63;;;11.70;;
8104;SDS011;4095;48.942;9.104;2023-02-08T05:34:07;21.30;;;13.07;;
8104;SDS011;4095;48.942;9.104;2023-02-08T05:36:33;20.03;;;12.57;;
8104;SDS011;4095;48.942;9.104;2023-02-08T05:38:58;22.17;;;13.23;;
8104;SDS011;4095;48.942;9.104;2023-02-08T05:41:24;21.63;;;13.33;;
8104;SDS011;4095;48.942;9.104;2023-02-08T05:43:49;24.50;;;13.97;;
8104;SDS011;4095;48.942;9.104;2023-02-08T05:46:15;28.13;;;14.20;;
8104;SDS011;4095;48.942;9.104;2023-02-08T05:48:41;22.67;;;13.60;;
8104;SDS011;4095;48.942;9.104;2023-02-08T05:51:07;19.90;;;13.07;;
8104;SDS011;4095;48.942;9.104;2023-02-08T05:53:32;24.30;;;14.53;;
8104;SDS011;4095;48.942;9.104;2023-02-08T05:55:58;23.13;;;13.87;;
8104;SDS011;4095;48.942;9.104;2023-02-08T05:58:24;21.77;;;14.63;;
8104;SDS011;4095;48.942;9.104;2023-02-08T06:00:49;19.43;;;13.30;;
8104;SDS011;4095;48.942;9.104;2023-02-08T06:03:15;23.70;;;14.40;;
8104;SDS011;4095;48.942;9.104;2023-02-08T06:05:41;21.60;;;14.00;;
8104;SDS011;4095;48.942;9.104;2023-02-08T06:08:07;21.87;;;14.10;;
8104;SDS011;4095;48.942;9.104;2023-02-08T06:10:33;24.47;;;14.57;;
8104;SDS011;4095;48.942;9.104;2023-02-08T06:12:58;22.47;;;13.90;;
8104;SDS011;4095;48.942;9.104;2023-02-08T06:15:25;21.07;;;13.67;;
8104;SDS011;4095;48.942;9.104;2023-02-08T06:17:51;20.27;;;14.57;;
8104;SDS011;4095;48.942;9.104;2023-02-08T06:20:16;24.70;;;14.53;;
8104;SDS011;4095;48.942;9.104;2023-02-08T06:22:42;21.83;;;14.10;;
8104;SDS011;4095;48.942;9.104;2023-02-08T06:25:08;22.40;;;14.97;;
8104;SDS011;4095;48.942;9.104;2023-02-08T06:27:34;21.37;;;14.57;;
8104;SDS011;4095;48.942;9.104;2023-02-08T06:30:00;24.70;;;14.83;;
8104;SDS011;4095;48.942;9.104;2023-02-08T06:32:25;24.17;;;15.03;;
8104;SDS011;4095;48.942;9.104;2023-02-08T06:34:51;21.87;;;15.13;;
8104;SDS011;4095;48.942;9.104;2023-02-08T06:37:17;23.50;;;15.07;;
8104;SDS011;4095;48.942;9.104;2023-02-08T06:39:43;22.27;;;15.07;;
8104;SDS011;4095;48.942;9.104;2023-02-08T06:42:09;23.23;;;15.67;;
8104;SDS011;4095;48.942;9.104;2023-02-08T06:44:35;23.87;;;15.83;;
8104;SDS011;4095;48.942;9.104;2023-02-08T06:47:00;24.37;;;16.13;;
8104;SDS011;4095;48.942;9.104;2023-02-08T06:49:27;25.73;;;16.17;;
8104;SDS011;4095;48.942;9.104;2023-02-08T06:51:52;37.03;;;20.60;;
8104;SDS011;4095;48.942;9.104;2023-02-08T06:54:18;35.90;;;20.67;;
8104;SDS011;4095;48.942;9.104;2023-02-08T06:56:43;25.67;;;16.33;;
8104;SDS011;4095;48.942;9.104;2023-02-08T06:59:09;41.50;;;20.90;;
8104;SDS011;4095;48.942;9.104;2023-02-08T07:01:35;33.57;;;19.53;;
8104;SDS011;4095;48.942;9.104;2023-02-08T07:04:00;27.37;;;17.83;;
8104;SDS011;4095;48.942;9.104;2023-02-08T07:06:26;25.80;;;16.73;;
8104;SDS011;4095;48.942;9.104;2023-02-08T07:08:51;24.13;;;16.23;;
8104;SDS011;4095;48.942;9.104;2023-02-08T07:11:17;34.60;;;21.40;;
8104;SDS011;4095;48.942;9.104;2023-02-08T07:13:50;71.53;;;48.53;;
8104;SDS011;4095;48.942;9.104;2023-02-08T07:16:18;95.10;;;63.03;;
8104;SDS011;4095;48.942;9.104;2023-02-08T07:18:44;101.23;;;68.80;;
8104;SDS011;4095;48.942;9.104;2023-02-08T07:21:10;89.03;;;60.03;;
8104;SDS011;4095;48.942;9.104;2023-02-08T07:23:37;72.17;;;49.37;;
8104;SDS011;4095;48.942;9.104;2023-02-08T07:26:04;70.20;;;48.47;;
8104;SDS011;4095;48.942;9.104;2023-02-08T07:28:31;62.70;;;42.20;;
8104;SDS011;4095;48.942;9.104;2023-02-08T07:30:57;54.73;;;38.67;;
8104;SDS011;4095;48.942;9.104;2023-02-08T07:33:23;66.20;;;42.93;;
8104;SDS011;4095;48.942;9.104;2023-02-08T07:35:49;54.67;;;37.37;;
8104;SDS011;4095;48.942;9.104;2023-02-08T07:38:16;38.67;;;28.10;;
8104;SDS011;4095;48.942;9.104;2023-02-08T07:40:42;34.63;;;25.53;;
8104;SDS011;4095;48.942;9.104;2023-02-08T07:43:08;30.57;;;21.63;;
8104;SDS011;4095;48.942;9.104;2023-02-08T07:45:36;29.80;;;21.43;;
8104;SDS011;4095;48.942;9.104;2023-02-08T07:48:02;31.67;;;21.87;;
8104;SDS011;4095;48.942;9.104;2023-02-08T07:50:28;36.80;;;24.00;;
8104;SDS011;4095;48.942;9.104;2023-02-08T07:52:53;35.60;;;24.27;;
8104;SDS011;4095;48.942;9.104;2023-02-08T07:55:19;35.17;;;23.90;;
8104;SDS011;4095;48.942;9.104;2023-02-08T07:57:45;33.60;;;24.57;;
8104;SDS011;4095;48.942;9.104;2023-02-08T08:00:12;33.90;;;22.93;;
8104;SDS011;4095;48.942;9.104;2023-02-08T08:02:39;32.43;;;21.57;;
8104;SDS011;4095;48.942;9.104;2023-02-08T08:05:06;28.20;;;19.67;;
8104;SDS011;4095;48.942;9.104;2023-02-08T08:07:32;30.53;;;19.63;;
8104;SDS011;4095;48.942;9.104;2023-02-08T08:09:58;28.80;;;18.83;;
8104;SDS011;4095;48.942;9.104;2023-02-08T08:12:23;27.30;;;18.80;;
8104;SDS011;4095;48.942;9.104;2023-02-08T08:14:49;28.07;;;18.67;;
8104;SDS011;4095;48.942;9.104;2023-02-08T08:17:16;30.73;;;18.77;;
8104;SDS011;4095;48.942;9.104;2023-02-08T08:19:42;30.53;;;17.90;;
8104;SDS011;4095;48.942;9.104;2023-02-08T08:22:08;27.90;;;18.03;;
8104;SDS011;4095;48.942;9.104;2023-02-08T08:24:34;33.40;;;18.23;;
8104;SDS011;4095;48.942;9.104;2023-02-08T08:27:03;28.30;;;18.57;;
8104;SDS011;4095;48.942;9.104;2023-02-08T08:29:33;28.50;;;18.17;;
8104;SDS011;4095;48.942;9.104;2023-02-08T08:32:00;25.70;;;16.33;;
8104;SDS011;4095;48.942;9.104;2023-02-08T08:34:27;29.37;;;17.40;;
8104;SDS011;4095;48.942;9.104;2023-02-08T08:36:56;30.70;;;16.67;;
8104;SDS011;4095;48.942;9.104;2023-02-08T08:39:23;26.00;;;16.20;;
8104;SDS011;4095;48.942;9.104;2023-02-08T08:41:49;31.63;;;17.97;;
8104;SDS011;4095;48.942;9.104;2023-02-08T08:44:15;27.50;;;17.53;;
8104;SDS011;4095;48.942;9.104;2023-02-08T08:46:40;27.00;;;18.10;;
8104;SDS011;4095;48.942;9.104;2023-02-08T08:49:06;24.30;;;16.67;;
8104;SDS011;4095;48.942;9.104;2023-02-08T08:51:32;24.37;;;15.30;;
8104;SDS011;4095;48.942;9.104;2023-02-08T08:54:02;21.23;;;14.77;;
8104;SDS011;4095;48.942;9.104;2023-02-08T08:56:29;20.97;;;15.17;;
8104;SDS011;4095;48.942;9.104;2023-02-08T08:58:55;23.60;;;15.47;;
8104;SDS011;4095;48.942;9.104;2023-02-08T09:01:21;21.43;;;14.70;;
8104;SDS011;4095;48.942;9.104;2023-02-08T09:03:46;21.53;;;15.07;;
8104;SDS011;4095;48.942;9.104;2023-02-08T09:06:12;20.87;;;15.13;;
8104;SDS011;4095;48.942;9.104;2023-02-08T09:08:38;22.00;;;14.70;;
8104;SDS011;4095;48.942;9.104;2023-02-08T09:11:07;20.37;;;14.57;;
8104;SDS011;4095;48.942;9.104;2023-02-08T09:13:35;20.67;;;13.60;;
8104;SDS011;4095;48.942;9.104;2023-02-08T09:16:08;21.17;;;13.83;;
8104;SDS011;4095;48.942;9.104;2023-02-08T09:18:36;21.40;;;14.73;;
8104;SDS011;4095;48.942;9.104;2023-02-08T09:21:05;20.27;;;15.00;;
8104;SDS011;4095;48.942;9.104;2023-02-08T09:23:35;17.97;;;13.43;;
8104;SDS011;4095;48.942;9.104;2023-02-08T09:26:02;19.00;;;13.90;;
8104;SDS011;4095;48.942;9.104;2023-02-08T09:28:31;21.07;;;13.90;;
8104;SDS011;4095;48.942;9.104;2023-02-08T09:30:58;19.47;;;14.23;;
8104;SDS011;4095;48.942;9.104;2023-02-08T09:33:25;22.13;;;14.10;;
8104;SDS011;4095;48.942;9.104;2023-02-08T09:35:52;19.67;;;13.40;;
8104;SDS011;4095;48.942;9.104;2023-02-08T09:38:17;21.57;;;14.40;;
8104;SDS011;4095;48.942;9.104;2023-02-08T09:43:16;17.37;;;13.63;;
8104;SDS011;4095;48.942;9.104;2023-02-08T09:46:09;18.70;;;13.00;;
8104;SDS011;4095;48.942;9.104;2023-02-08T09:48:37;18.77;;;13.23;;
8104;SDS011;4095;48.942;9.104;2023-02-08T09:53:53;20.63;;;13.53;;
8104;SDS011;4095;48.942;9.104;2023-02-08T09:56:30;17.77;;;12.70;;
8104;SDS011;4095;48.942;9.104;2023-02-08T09:59:04;17.87;;;13.00;;
8104;SDS011;4095;48.942;9.104;2023-02-08T10:01:36;17.43;;;12.37;;
8104;SDS011;4095;48.942;9.104;2023-02-08T10:04:14;19.37;;;12.50;;
8104;SDS011;4095;48.942;9.104;2023-02-08T10:06:48;19.20;;;13.13;;
8104;SDS011;4095;48.942;9.104;2023-02-08T10:09:14;16.17;;;12.57;;
8104;SDS011;4095;48.942;9.104;2023-02-08T10:33:23;15.73;;;11.67;;
8104;SDS011;4095;48.942;9.104;2023-02-08T10:35:56;14.73;;;11.23;;
8104;SDS011;4095;48.942;9.104;2023-02-08T10:40:54;15.37;;;11.97;;
8104;SDS011;4095;48.942;9.104;2023-02-08T10:43:30;14.73;;;11.27;;
8104;SDS011;4095;48.942;9.104;2023-02-08T10:51:33;14.07;;;11.30;;
8104;SDS011;4095;48.942;9.104;2023-02-08T10:53:59;13.57;;;10.93;;
8104;SDS011;4095;48.942;9.104;2023-02-08T10:56:31;14.50;;;11.10;;
8104;SDS011;4095;48.942;9.104;2023-02-08T10:59:12;13.00;;;11.20;;
8104;SDS011;4095;48.942;9.104;2023-02-08T11:01:39;12.53;;;11.07;;
8104;SDS011;4095;48.942;9.104;2023-02-08T11:04:09;11.73;;;10.53;;
8104;SDS011;4095;48.942;9.104;2023-02-08T11:06:36;11.87;;;10.33;;
8104;SDS011;4095;48.942;9.104;2023-02-08T11:09:03;11.17;;;10.07;;
8104;SDS011;4095;48.942;9.104;2023-02-08T11:11:34;10.70;;;9.60;;
8104;SDS011;4095;48.942;9.104;2023-02-08T11:16:33;11.37;;;9.97;;
8104;SDS011;4095;48.942;9.104;2023-02-08T11:19:00;10.82;;;9.73;;
8104;SDS011;4095;48.942;9.104;2023-02-08T11:21:32;10.63;;;9.48;;
8104;SDS011;4095;48.942;9.104;2023-02-08T11:24:42;10.57;;;9.48;;
8104;SDS011;4095;48.942;9.104;2023-02-08T11:26:52;10.02;;;8.93;;
8104;SDS011;4095;48.942;9.104;2023-02-08T11:29:18;10.32;;;9.32;;
8104;SDS011;4095;48.942;9.104;2023-02-08T11:36:57;10.13;;;9.13;;
8104;SDS011;4095;48.942;9.104;2023-02-08T11:39:44;10.68;;;9.00;;
8104;SDS011;4095;48.942;9.104;2023-02-08T11:42:24;9.40;;;8.40;;
8104;SDS011;4095;48.942;9.104;2023-02-08T11:44:53;10.45;;;8.45;;
8104;SDS011;4095;48.942;9.104;2023-02-08T11:47:29;9.52;;;8.55;;
8104;SDS011;4095;48.942;9.104;2023-02-08T11:50:00;8.98;;;7.90;;
8104;SDS011;4095;48.942;9.104;2023-02-08T11:52:31;9.95;;;8.70;;
8104;SDS011;4095;48.942;9.104;2023-02-08T11:57:54;10.02;;;8.80;;
8104;SDS011;4095;48.942;9.104;2023-02-08T12:00:31;9.55;;;8.57;;
8104;SDS011;4095;48.942;9.104;2023-02-08T12:03:12;9.68;;;8.68;;
8104;SDS011;4095;48.942;9.104;2023-02-08T12:05:44;9.13;;;8.20;;
8104;SDS011;4095;48.942;9.104;2023-02-08T12:22:09;11.03;;;8.60;;
8104;SDS011;4095;48.942;9.104;2023-02-08T12:27:34;9.43;;;8.37;;
8104;SDS011;4095;48.942;9.104;2023-02-08T12:38:16;9.53;;;7.20;;
8104;SDS011;4095;48.942;9.104;2023-02-08T12:57:28;9.17;;;6.87;;
8104;SDS011;4095;48.942;9.104;2023-02-08T12:59:57;8.10;;;6.67;;
8104;SDS011;4095;48.942;9.104;2023-02-08T13:04:57;7.37;;;5.97;;
8104;SDS011;4095;48.942;9.104;2023-02-08T13:07:29;7.10;;;6.20;;
8104;SDS011;4095;48.942;9.104;2023-02-08T13:13:26;6.33;;;5.47;;
8104;SDS011;4095;48.942;9.104;2023-02-08T13:15:56;6.63;;;5.93;;
8104;SDS011;4095;48.942;9.104;2023-02-08T13:18:29;7.73;;;6.37;;
8104;SDS011;4095;48.942;9.104;2023-02-08T13:21:01;7.93;;;6.47;;
8104;SDS011;4095;48.942;9.104;2023-02-08T13:23:35;8.70;;;6.27;;
8104;SDS011;4095;48.942;9.104;2023-02-08T13:28:56;10.43;;;5.87;;
8104;SDS011;4095;48.942;9.104;2023-02-08T13:31:24;7.17;;;5.80;;
8104;SDS011;4095;48.942;9.104;2023-02-08T13:36:35;7.80;;;5.03;;
8104;SDS011;4095;48.942;9.104;2023-02-08T13:39:04;7.57;;;5.57;;
8104;SDS011;4095;48.942;9.104;2023-02-08T13:41:32;8.07;;;5.40;;
8104;SDS011;4095;48.942;9.104;2023-02-08T13:44:04;7.07;;;5.30;;
8104;SDS011;4095;48.942;9.104;2023-02-08T13:46:45;7.47;;;5.30;;
8104;SDS011;4095;48.942;9.104;2023-02-08T13:52:07;7.40;;;5.57;;
8104;SDS011;4095;48.942;9.104;2023-02-08T13:54:33;5.77;;;5.00;;
8104;SDS011;4095;48.942;9.104;2023-02-08T13:56:59;6.33;;;5.03;;
8104;SDS011;4095;48.942;9.104;2023-02-08T13:59:29;8.20;;;5.07;;
8104;SDS011;4095;48.942;9.104;2023-02-08T14:07:47;6.30;;;5.33;;
8104;SDS011;4095;48.942;9.104;2023-02-08T14:15:35;5.03;;;4.53;;
8104;SDS011;4095;48.942;9.104;2023-02-08T14:18:03;5.63;;;4.97;;
8104;SDS011;4095;48.942;9.104;2023-02-08T14:20:43;6.43;;;5.07;;
8104;SDS011;4095;48.942;9.104;2023-02-08T14:23:25;6.10;;;4.80;;
8104;SDS011;4095;48.942;9.104;2023-02-08T14:25:55;6.10;;;4.80;;
8104;SDS011;4095;48.942;9.104;2023-02-08T14:28:31;5.77;;;4.67;;
8104;SDS011;4095;48.942;9.104;2023-02-08T14:31:09;6.40;;;5.43;;
8104;SDS011;4095;48.942;9.104;2023-02-08T14:33:48;7.60;;;5.10;;
8104;SDS011;4095;48.942;9.104;2023-02-08T14:36:27;6.60;;;5.03;;
8104;SDS011;4095;48.942;9.104;2023-02-08T14:39:07;7.70;;;4.93;;
8104;SDS011;4095;48.942;9.104;2023-02-08T14:41:43;6.27;;;4.93;;
8104;SDS011;4095;48.942;9.104;2023-02-08T14:47:04;7.40;;;5.57;;
8104;SDS011;4095;48.942;9.104;2023-02-08T14:52:38;7.10;;;5.43;;
8104;SDS011;4095;48.942;9.104;2023-02-08T14:55:12;6.17;;;5.10;;
8104;SDS011;4095;48.942;9.104;2023-02-08T14:57:42;7.27;;;5.50;;
8104;SDS011;4095;48.942;9.104;2023-02-08T15:00:18;7.60;;;5.63;;
8104;SDS011;4095;48.942;9.104;2023-02-08T15:02:47;8.53;;;6.27;;
8104;SDS011;4095;48.942;9.104;2023-02-08T15:05:20;6.57;;;5.60;;
8104;SDS011;4095;48.942;9.104;2023-02-08T15:07:48;8.33;;;6.30;;
8104;SDS011;4095;48.942;9.104;2023-02-08T15:10:16;6.90;;;6.17;;
8104;SDS011;4095;48.942;9.104;2023-02-08T15:12:52;7.37;;;6.03;;
8104;SDS011;4095;48.942;9.104;2023-02-08T15:15:39;8.17;;;6.30;;
8104;SDS011;4095;48.942;9.104;2023-02-08T15:18:16;8.17;;;6.10;;
8104;SDS011;4095;48.942;9.104;2023-02-08T15:20:45;12.50;;;7.80;;
8104;SDS011;4095;48.942;9.104;2023-02-08T15:23:23;7.00;;;5.93;;
8104;SDS011;4095;48.942;9.104;2023-02-08T15:26:05;9.00;;;6.23;;
8104;SDS011;4095;48.942;9.104;2023-02-08T15:28:45;9.33;;;6.67;;
8104;SDS011;4095;48.942;9.104;2023-02-08T15:31:14;7.63;;;6.37;;
8104;SDS011;4095;48.942;9.104;2023-02-08T15:33:43;8.67;;;6.53;;
8104;SDS011;4095;48.942;9.104;2023-02-08T15:38:58;8.57;;;7.03;;
8104;SDS011;4095;48.942;9.104;2023-02-08T15:41:28;9.40;;;6.70;;
8104;SDS011;4095;48.942;9.104;2023-02-08T15:43:59;8.03;;;6.47;;
8104;SDS011;4095;48.942;9.104;2023-02-08T15:46:27;9.63;;;7.30;;
8104;SDS011;4095;48.942;9.104;2023-02-08T15:48:53;8.33;;;6.70;;
8104;SDS011;4095;48.942;9.104;2023-02-08T15:51:21;9.60;;;7.20;;
8104;SDS011;4095;48.942;9.104;2023-02-08T15:53:50;9.10;;;6.63;;
8104;SDS011;4095;48.942;9.104;2023-02-08T15:56:19;8.93;;;6.53;;
8104;SDS011;4095;48.942;9.104;2023-02-08T15:58:51;9.67;;;6.90;;
8104;SDS011;4095;48.942;9.104;2023-02-08T16:01:20;10.63;;;6.80;;
8104;SDS011;4095;48.942;9.104;2023-02-08T16:03:46;9.47;;;7.30;;
8104;SDS011;4095;48.942;9.104;2023-02-08T16:06:18;10.43;;;7.00;;
8104;SDS011;4095;48.942;9.104;2023-02-08T16:08:48;9.10;;;6.87;;
8104;SDS011;4095;48.942;9.104;2023-02-08T16:11:26;11.80;;;6.90;;
8104;SDS011;4095;48.942;9.104;2023-02-08T16:13:55;11.23;;;7.50;;
8104;SDS011;4095;48.942;9.104;2023-02-08T16:16:37;10.83;;;7.57;;
8104;SDS011;4095;48.942;9.104;2023-02-08T16:19:18;9.60;;;6.90;;
8104;SDS011;4095;48.942;9.104;2023-02-08T16:21:44;8.70;;;6.70;;
8104;SDS011;4095;48.942;9.104;2023-02-08T16:26:39;11.60;;;8.10;;
8104;SDS011;4095;48.942;9.104;2023-02-08T16:29:06;11.10;;;8.43;;
8104;SDS011;4095;48.942;9.104;2023-02-08T16:32:17;10.20;;;7.50;;
8104;SDS011;4095;48.942;9.104;2023-02-08T16:34:59;10.17;;;7.40;;
8104;SDS011;4095;48.942;9.104;2023-02-08T16:37:58;10.17;;;8.00;;
8104;SDS011;4095;48.942;9.104;2023-02-08T16:43:25;11.83;;;8.43;;
8104;SDS011;4095;48.942;9.104;2023-02-08T16:48:40;11.33;;;8.17;;
8104;SDS011;4095;48.942;9.104;2023-02-08T16:51:14;13.00;;;8.57;;
8104;SDS011;4095;48.942;9.104;2023-02-08T16:53:42;11.33;;;8.50;;
8104;SDS011;4095;48.942;9.104;2023-02-08T16:56:10;11.13;;;8.43;;
8104;SDS011;4095;48.942;9.104;2023-02-08T16:58:36;10.93;;;8.93;;
8104;SDS011;4095;48.942;9.104;2023-02-08T17:01:02;11.97;;;8.93;;
8104;SDS011;4095;48.942;9.104;2023-02-08T17:03:28;13.40;;;9.00;;
8104;SDS011;4095;48.942;9.104;2023-02-08T17:05:54;12.10;;;8.80;;
8104;SDS011;4095;48.942;9.104;2023-02-08T17:08:20;14.30;;;9.10;;
8104;SDS011;4095;48.942;9.104;2023-02-08T17:10:46;12.77;;;9.23;;
8104;SDS011;4095;48.942;9.104;2023-02-08T17:13:22;11.57;;;8.53;;
8104;SDS011;4095;48.942;9.104;2023-02-08T17:15:51;11.70;;;8.73;;
8104;SDS011;4095;48.942;9.104;2023-02-08T17:18:17;12.93;;;9.07;;
8104;SDS011;4095;48.942;9.104;2023-02-08T17:20:43;13.67;;;9.20;;
8104;SDS011;4095;48.942;9.104;2023-02-08T17:23:09;12.20;;;9.13;;
8104;SDS011;4095;48.942;9.104;2023-02-08T17:25:35;11.87;;;8.73;;
8104;SDS011;4095;48.942;9.104;2023-02-08T17:28:06;13.33;;;10.10;;
8104;SDS011;4095;48.942;9.104;2023-02-08T17:33:01;11.10;;;8.73;;
8104;SDS011;4095;48.942;9.104;2023-02-08T17:35:28;13.10;;;9.60;;
8104;SDS011;4095;48.942;9.104;2023-02-08T17:37:54;11.83;;;9.33;;
8104;SDS011;4095;48.942;9.104;2023-02-08T17:40:24;12.87;;;9.33;;
8104;SDS011;4095;48.942;9.104;2023-02-08T17:42:53;14.57;;;10.50;;
8104;SDS011;4095;48.942;9.104;2023-02-08T17:45:19;13.07;;;9.93;;
8104;SDS011;4095;48.942;9.104;2023-02-08T17:47:45;14.27;;;10.27;;
8104;SDS011;4095;48.942;9.104;2023-02-08T17:50:12;15.53;;;10.77;;
8104;SDS011;4095;48.942;9.104;2023-02-08T17:52:39;13.03;;;9.90;;
8104;SDS011;4095;48.942;9.104;2023-02-08T17:55:06;21.90;;;14.57;;
8104;SDS011;4095;48.942;9.104;2023-02-08T17:57:33;13.97;;;10.57;;
8104;SDS011;4095;48.942;9.104;2023-02-08T18:00:05;13.17;;;10.40;;
8104;SDS011;4095;48.942;9.104;2023-02-08T18:02:34;14.13;;;10.17;;
8104;SDS011;4095;48.942;9.104;2023-02-08T18:05:00;15.73;;;11.30;;